createdAt,value
2023-04-21T00:00:56.122Z,32.33
2023-04-21T00:03:28.180Z,30.38
2023-04-21T00:06:01.747Z,31.33
2023-04-21T00:08:28.827Z,31.50
2023-04-21T00:10:55.686Z,32.63
2023-04-21T00:13:23.220Z,30.42
2023-04-21T00:15:51.399Z,32.88
2023-04-21T00:18:18.329Z,31.27
2023-04-21T00:20:45.409Z,32.00
2023-04-21T00:23:12.271Z,33.15
2023-04-21T00:25:39.358Z,31.55
2023-04-21T00:28:06.325Z,32.85
2023-04-21T00:30:33.073Z,33.90
2023-04-21T00:32:59.917Z,32.95
2023-04-21T00:35:26.991Z,33.65
2023-04-21T00:37:53.914Z,31.77
2023-04-21T00:40:20.832Z,32.38
2023-04-21T00:42:47.608Z,32.28
2023-04-21T00:45:15.712Z,33.67
2023-04-21T00:47:43.212Z,32.05
2023-04-21T00:50:13.457Z,32.33
2023-04-21T00:52:42.293Z,30.02
2023-04-21T00:55:09.583Z,28.92
2023-04-21T00:57:38.285Z,30.55
2023-04-21T01:00:06.520Z,27.73
2023-04-21T01:02:36.097Z,28.90
2023-04-21T01:05:07.395Z,27.75
2023-04-21T01:07:34.158Z,27.08
2023-04-21T01:10:01.124Z,27.73
2023-04-21T01:12:27.983Z,26.80
2023-04-21T01:14:54.870Z,28.45
2023-04-21T01:17:21.795Z,28.83
2023-04-21T01:19:50.136Z,27.85
2023-04-21T01:22:17.131Z,29.45
2023-04-21T01:24:48.404Z,29.33
2023-04-21T01:27:20.641Z,27.98
2023-04-21T01:29:51.514Z,29.98
2023-04-21T01:32:21.136Z,29.77
2023-04-21T01:34:48.788Z,29.88
2023-04-21T01:37:20.126Z,29.98
2023-04-21T01:39:52.446Z,28.00
2023-04-21T01:42:20.268Z,29.20
2023-04-21T01:44:47.288Z,29.95
2023-04-21T01:47:14.237Z,29.83
2023-04-21T01:49:40.985Z,30.70
2023-04-21T01:52:08.144Z,29.38
2023-04-21T01:54:35.798Z,30.17
2023-04-21T01:57:03.356Z,28.65
2023-04-21T01:59:30.226Z,30.27
2023-04-21T02:01:57.058Z,31.63
2023-04-21T02:04:23.978Z,31.02
2023-04-21T02:06:50.876Z,30.27
2023-04-21T02:09:18.020Z,29.73
2023-04-21T02:11:45.104Z,29.90
2023-04-21T02:14:11.913Z,30.10
2023-04-21T02:16:38.748Z,30.88
2023-04-21T02:19:06.347Z,30.25
2023-04-21T02:21:33.135Z,30.30
2023-04-21T02:24:00.263Z,30.02
2023-04-21T02:26:27.221Z,32.22
2023-04-21T02:28:53.966Z,30.15
2023-04-21T02:31:20.745Z,29.98
2023-04-21T02:33:47.531Z,30.73
2023-04-21T02:36:14.376Z,31.13
2023-04-21T02:38:41.195Z,30.70
2023-04-21T02:41:08.579Z,30.95
2023-04-21T02:43:35.274Z,30.52
2023-04-21T02:46:08.978Z,30.80
2023-04-21T02:48:37.087Z,30.98
2023-04-21T02:51:04.855Z,30.88
2023-04-21T02:53:31.801Z,30.00
2023-04-21T02:55:58.544Z,31.02
2023-04-21T02:58:25.705Z,32.35
2023-04-21T03:00:52.544Z,32.55
2023-04-21T03:03:19.548Z,30.50
2023-04-21T03:05:46.490Z,29.58
2023-04-21T03:08:13.597Z,32.20
2023-04-21T03:10:40.570Z,31.88
2023-04-21T03:13:07.362Z,33.33
2023-04-21T03:15:34.186Z,30.05
2023-04-21T03:18:01.624Z,29.23
2023-04-21T03:20:28.544Z,32.72
2023-04-21T03:22:55.364Z,31.80
2023-04-21T03:25:22.215Z,31.63
2023-04-21T03:27:49.985Z,31.60
2023-04-21T03:30:16.712Z,33.10
2023-04-21T03:32:43.501Z,32.08
2023-04-21T03:35:10.340Z,31.13
2023-04-21T03:37:37.062Z,32.00
2023-04-21T03:40:06.327Z,32.85
2023-04-21T03:42:33.105Z,31.13
2023-04-21T03:45:07.886Z,31.63
2023-04-21T03:47:35.470Z,31.40
2023-04-21T03:50:06.703Z,32.30
2023-04-21T03:52:33.782Z,33.22
2023-04-21T03:55:01.031Z,30.73
2023-04-21T03:57:27.714Z,32.50
2023-04-21T03:59:54.500Z,32.22
2023-04-21T04:02:21.421Z,30.77
2023-04-21T04:04:48.969Z,30.75
2023-04-21T04:07:17.791Z,31.88
2023-04-21T04:09:44.949Z,33.28
2023-04-21T04:12:11.986Z,33.22
2023-04-21T04:14:39.727Z,31.77
2023-04-21T04:17:06.619Z,31.88
2023-04-21T04:19:33.488Z,31.35
2023-04-21T04:22:01.442Z,29.98
2023-04-21T04:24:28.308Z,31.90
2023-04-21T04:26:55.515Z,31.95
2023-04-21T04:29:22.830Z,30.73
2023-04-21T04:31:51.258Z,33.03
2023-04-21T04:34:18.174Z,32.72
2023-04-21T04:36:45.939Z,32.58
2023-04-21T04:39:12.762Z,32.55
2023-04-21T04:41:40.031Z,34.53
2023-04-21T04:44:06.913Z,32.67
2023-04-21T04:46:34.063Z,32.53
2023-04-21T04:49:01.502Z,32.42
2023-04-21T04:51:28.617Z,32.10
2023-04-21T04:53:55.415Z,31.02
2023-04-21T04:56:22.309Z,32.40
2023-04-21T04:58:49.197Z,32.15
2023-04-21T05:01:19.103Z,31.88
2023-04-21T05:03:47.066Z,31.17
2023-04-21T05:06:14.549Z,32.13
2023-04-21T05:08:45.382Z,30.65
2023-04-21T05:11:12.211Z,31.17
2023-04-21T05:13:40.195Z,30.48
2023-04-21T05:16:07.828Z,30.23
2023-04-21T05:18:34.619Z,29.67
2023-04-21T05:21:01.355Z,29.38
2023-04-21T05:23:28.446Z,29.13
2023-04-21T05:25:55.225Z,28.50
2023-04-21T05:28:22.028Z,28.05
2023-04-21T05:30:49.611Z,27.48
2023-04-21T05:33:19.868Z,27.75
2023-04-21T05:35:46.928Z,26.08
2023-04-21T05:38:13.719Z,26.08
2023-04-21T05:40:40.878Z,27.08
2023-04-21T05:43:07.631Z,27.52
2023-04-21T05:45:38.856Z,27.10
2023-04-21T05:48:06.173Z,27.70
2023-04-21T05:50:35.920Z,28.92
2023-04-21T05:53:02.809Z,27.98
2023-04-21T05:55:29.628Z,29.63
2023-04-21T05:57:56.605Z,30.38
2023-04-21T06:00:23.359Z,28.60
2023-04-21T06:02:50.317Z,27.27
2023-04-21T06:05:17.270Z,27.98
2023-04-21T06:07:44.127Z,27.40
2023-04-21T06:10:11.812Z,27.98
2023-04-21T06:12:38.765Z,27.42
2023-04-21T06:15:06.246Z,26.50
2023-04-21T06:17:33.243Z,27.77
2023-04-21T06:20:00.074Z,26.13
2023-04-21T06:22:27.759Z,27.88
2023-04-21T06:24:54.537Z,27.85
2023-04-21T06:27:21.239Z,28.42
2023-04-21T06:29:48.005Z,26.98
2023-04-21T06:32:14.815Z,25.70
2023-04-21T06:34:41.545Z,24.73
2023-04-21T06:37:08.687Z,25.10
2023-04-21T06:39:35.481Z,26.00
2023-04-21T06:42:02.614Z,25.92
2023-04-21T06:44:30.031Z,23.55
2023-04-21T06:46:56.965Z,25.80
2023-04-21T06:49:23.795Z,24.83
2023-04-21T06:51:50.517Z,24.05
2023-04-21T06:54:17.306Z,24.77
2023-04-21T06:56:44.081Z,25.25
2023-04-21T06:59:11.258Z,24.38
2023-04-21T07:01:38.076Z,25.02
2023-04-21T07:04:06.480Z,23.20
2023-04-21T07:06:33.736Z,24.05
2023-04-21T07:09:00.555Z,24.58
2023-04-21T07:11:28.859Z,23.17
2023-04-21T07:13:56.074Z,23.15
2023-04-21T07:16:22.965Z,23.30
2023-04-21T07:18:49.808Z,22.50
2023-04-21T07:21:16.578Z,23.80
2023-04-21T07:23:43.349Z,23.50
2023-04-21T07:26:10.587Z,23.45
2023-04-21T07:28:38.713Z,23.33
2023-04-21T07:31:05.479Z,23.05
2023-04-21T07:33:32.485Z,24.20
2023-04-21T07:35:59.626Z,24.00
2023-04-21T07:38:26.468Z,22.50
2023-04-21T07:40:53.426Z,23.92
2023-04-21T07:43:20.191Z,23.52
2023-04-21T07:45:47.100Z,23.70
2023-04-21T07:48:13.930Z,22.38
2023-04-21T07:50:41.648Z,21.75
2023-04-21T07:53:08.478Z,22.80
2023-04-21T07:55:37.630Z,20.50
2023-04-21T07:58:05.394Z,19.35
2023-04-21T08:00:32.353Z,21.02
2023-04-21T08:02:59.455Z,20.52
2023-04-21T08:05:28.920Z,19.60
2023-04-21T08:07:58.523Z,20.13
2023-04-21T08:10:25.720Z,19.75
2023-04-21T08:12:52.587Z,20.20
2023-04-21T08:15:19.500Z,19.95
2023-04-21T08:17:46.504Z,20.60
2023-04-21T08:20:13.825Z,20.67
2023-04-21T08:22:40.608Z,20.52
2023-04-21T08:25:07.803Z,20.50
2023-04-21T08:27:34.772Z,19.70
2023-04-21T08:30:01.628Z,19.40
2023-04-21T08:32:28.474Z,18.83
2023-04-21T08:34:55.520Z,19.50
2023-04-21T08:37:23.221Z,19.23
2023-04-21T08:39:53.918Z,19.42
2023-04-21T08:42:21.149Z,18.80
2023-04-21T08:44:47.987Z,19.23
2023-04-21T08:47:16.041Z,19.80
2023-04-21T08:49:45.544Z,18.63
2023-04-21T08:52:14.186Z,18.20
2023-04-21T08:54:41.822Z,17.50
2023-04-21T08:57:15.516Z,17.40
2023-04-21T08:59:43.270Z,18.42
2023-04-21T09:02:12.696Z,18.35
2023-04-21T09:04:44.181Z,17.52
2023-04-21T09:07:11.585Z,17.23
2023-04-21T09:09:55.164Z,16.83
2023-04-21T09:12:23.153Z,17.02
2023-04-21T09:14:50.195Z,16.40
2023-04-21T09:17:18.536Z,16.75
2023-04-21T09:19:45.450Z,16.48
2023-04-21T09:22:18.821Z,16.10
2023-04-21T09:24:47.301Z,16.98
2023-04-21T09:27:16.487Z,16.40
2023-04-21T09:29:50.597Z,17.13
2023-04-21T09:32:20.038Z,17.40
2023-04-21T09:34:47.169Z,17.83
2023-04-21T09:37:17.396Z,16.98
2023-04-21T09:40:03.542Z,17.58
2023-04-21T09:42:39.175Z,17.00
2023-04-21T09:45:32.320Z,17.98
2023-04-21T09:48:00.971Z,16.08
2023-04-21T09:53:08.410Z,14.95
2023-04-21T09:55:36.156Z,15.57
2023-04-21T09:58:03.324Z,15.52
2023-04-21T10:00:31.369Z,15.75
2023-04-21T10:03:01.158Z,14.85
2023-04-21T10:05:29.229Z,14.98
2023-04-21T10:07:56.874Z,15.10
2023-04-21T10:10:27.424Z,14.00
2023-04-21T10:12:55.199Z,12.52
2023-04-21T10:15:40.992Z,13.52
2023-04-21T10:18:14.744Z,13.40
2023-04-21T10:21:10.320Z,12.80
2023-04-21T10:23:43.986Z,12.50
2023-04-21T10:26:12.222Z,11.73
2023-04-21T10:29:02.277Z,12.73
2023-04-21T10:31:36.340Z,12.82
2023-04-21T10:34:12.204Z,12.63
2023-04-21T10:36:54.499Z,12.75
2023-04-21T10:39:47.649Z,11.63
2023-04-21T10:42:17.964Z,12.23
2023-04-21T10:44:51.145Z,12.68
2023-04-21T10:47:38.471Z,11.98
2023-04-21T10:50:20.643Z,12.80
2023-04-21T10:52:53.708Z,12.40
2023-04-21T10:55:21.410Z,12.10
2023-04-21T10:57:48.733Z,12.32
2023-04-21T11:00:21.477Z,11.73
2023-04-21T11:03:01.442Z,12.68
2023-04-21T11:05:41.540Z,12.05
2023-04-21T11:08:14.741Z,12.27
2023-04-21T11:10:55.975Z,12.30
2023-04-21T11:13:27.767Z,12.43
2023-04-21T11:16:01.509Z,11.95
2023-04-21T11:18:38.162Z,12.27
2023-04-21T11:21:11.850Z,13.63
2023-04-21T11:23:48.627Z,13.10
2023-04-21T11:26:16.134Z,13.02
2023-04-21T11:28:43.278Z,12.95
2023-04-21T11:31:11.154Z,11.77
2023-04-21T11:33:40.896Z,13.23
2023-04-21T11:36:08.389Z,13.27
2023-04-21T11:38:40.326Z,12.52
2023-04-21T11:41:07.789Z,12.00
2023-04-21T11:43:34.624Z,13.10
2023-04-21T11:46:18.301Z,12.70
2023-04-21T11:48:45.926Z,12.13
2023-04-21T11:51:20.704Z,12.55
2023-04-21T11:53:49.192Z,12.15
2023-04-21T11:56:21.993Z,11.77
2023-04-21T11:58:55.150Z,11.48
2023-04-21T12:01:22.877Z,10.95
2023-04-21T12:03:56.599Z,10.98
2023-04-21T12:06:28.920Z,9.57
2023-04-21T12:08:57.933Z,9.57
2023-04-21T12:11:25.546Z,10.00
2023-04-21T12:13:52.385Z,8.93
2023-04-21T12:16:19.393Z,9.40
2023-04-21T12:18:48.655Z,9.48
2023-04-21T12:21:16.712Z,8.55
2023-04-21T12:23:44.939Z,8.55
2023-04-21T12:26:12.386Z,8.20
2023-04-21T12:28:40.071Z,7.95
2023-04-21T12:31:07.212Z,8.23
2023-04-21T12:33:34.343Z,8.35
2023-04-21T12:36:01.681Z,8.82
2023-04-21T12:38:28.743Z,9.93
2023-04-21T12:40:56.306Z,8.57
2023-04-21T12:43:23.108Z,8.50
2023-04-21T12:45:50.606Z,8.85
2023-04-21T12:48:17.501Z,7.80
2023-04-21T12:50:44.298Z,8.60
2023-04-21T12:53:11.016Z,8.38
2023-04-21T12:55:40.176Z,8.05
2023-04-21T12:58:10.164Z,6.93
2023-04-21T13:00:37.870Z,6.18
2023-04-21T13:03:05.054Z,5.60
2023-04-21T13:05:32.062Z,5.22
2023-04-21T13:07:59.055Z,5.25
2023-04-21T13:10:26.068Z,5.25
2023-04-21T13:12:52.797Z,5.93
2023-04-21T13:15:19.569Z,4.93
2023-04-21T13:17:46.438Z,5.35
2023-04-21T13:20:13.356Z,5.32
2023-04-21T13:22:43.070Z,5.43
2023-04-21T13:25:13.874Z,5.07
2023-04-21T13:27:48.764Z,5.65
2023-04-21T13:30:16.327Z,5.32
2023-04-21T13:32:43.910Z,5.68
2023-04-21T13:35:11.515Z,4.90
2023-04-21T13:37:38.907Z,5.70
2023-04-21T13:40:08.385Z,5.65
2023-04-21T13:42:36.287Z,6.07
2023-04-21T13:45:03.639Z,5.03
2023-04-21T13:47:32.527Z,5.55
2023-04-21T13:50:00.154Z,5.78
2023-04-21T13:52:27.680Z,4.80
2023-04-21T13:54:54.742Z,5.82
2023-04-21T13:57:21.616Z,5.20
2023-04-21T13:59:50.092Z,5.80
2023-04-21T14:02:18.340Z,5.13
2023-04-21T14:04:45.645Z,5.97
2023-04-21T14:07:15.660Z,5.68
2023-04-21T14:09:42.460Z,5.60
2023-04-21T14:12:10.536Z,5.85
2023-04-21T14:14:39.351Z,6.10
2023-04-21T14:17:07.240Z,5.68
2023-04-21T14:19:35.254Z,5.78
2023-04-21T14:22:02.569Z,4.55
2023-04-21T14:24:30.511Z,5.18
2023-04-21T14:26:57.985Z,5.40
2023-04-21T14:29:25.088Z,5.53
2023-04-21T14:31:54.198Z,4.80
2023-04-21T14:34:22.571Z,4.85
2023-04-21T14:36:51.650Z,5.22
2023-04-21T14:39:21.808Z,4.65
2023-04-21T14:41:49.401Z,4.70
2023-04-21T14:44:19.403Z,4.22
2023-04-21T14:46:53.732Z,4.53
2023-04-21T14:49:28.613Z,5.00
2023-04-21T14:51:58.165Z,4.13
2023-04-21T14:54:25.540Z,4.20
2023-04-21T14:57:00.480Z,4.55
2023-04-21T14:59:35.372Z,4.15
2023-04-21T15:02:03.542Z,4.50
2023-04-21T15:04:32.188Z,3.95
2023-04-21T15:07:01.871Z,5.10
2023-04-21T15:09:28.857Z,4.32
2023-04-21T15:11:55.880Z,3.80
2023-04-21T15:14:22.711Z,3.97
2023-04-21T15:16:49.469Z,3.75
2023-04-21T15:19:16.476Z,3.90
2023-04-21T15:21:43.257Z,4.20
2023-04-21T15:24:10.778Z,5.38
2023-04-21T15:26:37.934Z,4.30
2023-04-21T15:29:04.974Z,4.47
2023-04-21T15:31:31.988Z,3.80
2023-04-21T15:33:58.972Z,3.30
2023-04-21T15:36:26.211Z,3.50
2023-04-21T15:38:52.976Z,3.58
2023-04-21T15:41:19.813Z,3.55
2023-04-21T15:43:46.601Z,4.88
2023-04-21T15:46:13.546Z,3.75
2023-04-21T15:48:44.823Z,3.63
2023-04-21T15:51:13.241Z,3.20
2023-04-21T15:53:47.525Z,3.40
2023-04-21T15:56:18.002Z,3.33
2023-04-21T15:58:45.162Z,3.22
2023-04-21T16:01:12.592Z,3.38
2023-04-21T16:03:40.695Z,2.90
2023-04-21T16:06:08.153Z,3.30
2023-04-21T16:08:35.102Z,3.05
2023-04-21T16:11:02.136Z,2.78
2023-04-21T16:13:30.540Z,2.92
2023-04-21T16:15:57.688Z,2.85
2023-04-21T16:18:24.789Z,3.03
2023-04-21T16:20:52.056Z,2.80
2023-04-21T16:23:19.445Z,2.97
2023-04-21T16:25:46.241Z,2.78
2023-04-21T16:28:13.120Z,2.55
2023-04-21T16:30:43.963Z,2.38
2023-04-21T16:33:14.675Z,2.83
2023-04-21T16:35:42.164Z,2.40
2023-04-21T16:38:09.248Z,2.95
2023-04-21T16:40:36.075Z,2.35
2023-04-21T16:43:02.957Z,2.92
2023-04-21T16:45:30.085Z,2.70
2023-04-21T16:47:57.746Z,2.70
2023-04-21T16:50:25.086Z,2.60
2023-04-21T16:52:52.025Z,2.92
2023-04-21T16:55:20.083Z,2.92
2023-04-21T16:57:46.989Z,2.53
2023-04-21T17:00:14.376Z,2.65
2023-04-21T17:02:41.615Z,2.78
2023-04-21T17:05:09.292Z,2.50
2023-04-21T17:07:37.062Z,2.90
2023-04-21T17:10:03.962Z,2.60
2023-04-21T17:12:30.718Z,2.70
2023-04-21T17:14:57.446Z,2.97
2023-04-21T17:17:24.820Z,2.60
2023-04-21T17:19:53.523Z,2.80
2023-04-21T17:22:20.383Z,2.72
2023-04-21T17:24:53.108Z,2.80
2023-04-21T17:27:20.459Z,2.92
2023-04-21T17:29:47.277Z,2.70
2023-04-21T17:32:14.637Z,2.75
2023-04-21T17:34:41.538Z,2.72
2023-04-21T17:37:08.649Z,2.75
2023-04-21T17:39:35.688Z,2.95
2023-04-21T17:42:03.597Z,3.25
2023-04-21T17:44:30.561Z,2.65
2023-04-21T17:46:58.427Z,2.70
2023-04-21T17:49:25.680Z,3.10
2023-04-21T17:51:52.672Z,2.97
2023-04-21T17:54:19.514Z,2.95
2023-04-21T17:56:46.507Z,2.83
2023-04-21T17:59:14.081Z,3.17
2023-04-21T18:01:41.069Z,2.75
2023-04-21T18:04:08.353Z,3.00
2023-04-21T18:06:36.994Z,3.20
2023-04-21T18:09:05.334Z,3.10
2023-04-21T18:11:32.295Z,3.10
2023-04-21T18:13:59.244Z,3.20
2023-04-21T18:16:26.702Z,3.58
2023-04-21T18:18:54.028Z,3.40
2023-04-21T18:21:21.796Z,7.82
2023-04-21T18:23:49.453Z,5.40
2023-04-21T18:26:16.550Z,5.55
2023-04-21T18:28:43.372Z,6.00
2023-04-21T18:31:10.427Z,3.72
2023-04-21T18:33:37.336Z,3.72
2023-04-21T18:36:04.431Z,3.90
2023-04-21T18:38:31.287Z,4.70
2023-04-21T18:40:58.789Z,5.82
2023-04-21T18:43:25.720Z,5.90
2023-04-21T18:45:53.127Z,5.90
2023-04-21T18:48:20.006Z,5.40
2023-04-21T18:50:47.132Z,5.55
2023-04-21T18:53:14.181Z,5.88
2023-04-21T18:55:41.095Z,4.95
2023-04-21T18:58:08.145Z,4.63
2023-04-21T19:00:38.002Z,4.82
2023-04-21T19:03:09.189Z,6.53
2023-04-21T19:05:37.337Z,7.00
2023-04-21T19:08:04.444Z,6.70
2023-04-21T19:10:34.548Z,6.43
2023-04-21T19:13:01.737Z,6.63
2023-04-21T19:15:29.059Z,6.72
2023-04-21T19:17:56.295Z,6.38
2023-04-21T19:20:24.785Z,7.10
2023-04-21T19:22:54.693Z,7.65
2023-04-21T19:25:21.848Z,6.55
2023-04-21T19:27:48.715Z,5.80
2023-04-21T19:30:16.723Z,5.93
2023-04-21T19:32:47.769Z,6.45
2023-04-21T19:35:15.044Z,6.32
2023-04-21T19:37:42.294Z,6.45
2023-04-21T19:40:09.768Z,8.65
2023-04-21T19:42:41.659Z,8.23
2023-04-21T19:45:09.758Z,7.75
2023-04-21T19:47:41.215Z,8.82
2023-04-21T19:50:09.265Z,8.13
2023-04-21T19:52:36.966Z,8.10
2023-04-21T19:55:04.999Z,7.88
2023-04-21T19:57:31.994Z,7.15
2023-04-21T19:59:58.842Z,6.15
2023-04-21T20:02:26.631Z,6.03
2023-04-21T20:04:54.238Z,6.38
2023-04-21T20:07:21.288Z,6.22
2023-04-21T20:09:48.328Z,6.05
2023-04-21T20:12:15.216Z,5.25
2023-04-21T20:14:41.995Z,5.53
2023-04-21T20:17:09.141Z,6.13
2023-04-21T20:19:38.647Z,5.40
2023-04-21T20:22:06.976Z,5.68
2023-04-21T20:24:34.623Z,5.53
2023-04-21T20:27:02.265Z,6.25
2023-04-21T20:29:29.543Z,6.32
2023-04-21T20:31:57.905Z,5.78
2023-04-21T20:34:24.869Z,6.05
2023-04-21T20:36:55.176Z,5.85
2023-04-21T20:39:22.832Z,5.20
2023-04-21T20:42:01.030Z,5.97
2023-04-21T20:44:37.508Z,5.75
2023-04-21T20:47:04.650Z,5.68
2023-04-21T20:49:31.976Z,6.07
2023-04-21T20:52:00.256Z,6.82
2023-04-21T20:54:27.504Z,6.68
2023-04-21T20:56:54.661Z,7.03
2023-04-21T20:59:21.569Z,6.32
2023-04-21T21:01:48.721Z,7.18
2023-04-21T21:04:15.863Z,6.32
2023-04-21T21:06:43.213Z,6.43
2023-04-21T21:09:13.322Z,6.60
2023-04-21T21:11:40.167Z,7.35
2023-04-21T21:14:07.020Z,6.70
2023-04-21T21:16:33.939Z,7.10
2023-04-21T21:19:00.756Z,6.63
2023-04-21T21:21:27.643Z,6.70
2023-04-21T21:23:54.426Z,7.15
2023-04-21T21:26:21.354Z,7.43
2023-04-21T21:28:48.185Z,7.60
2023-04-21T21:31:16.826Z,7.45
2023-04-21T21:33:43.786Z,7.80
2023-04-21T21:36:10.831Z,8.05
2023-04-21T21:38:37.996Z,8.15
2023-04-21T21:41:05.370Z,8.02
2023-04-21T21:43:33.537Z,8.90
2023-04-21T21:46:00.452Z,8.60
2023-04-21T21:48:27.345Z,9.07
2023-04-21T21:50:54.215Z,8.52
2023-04-21T21:53:21.134Z,10.43
2023-04-21T21:55:47.971Z,10.15
2023-04-21T21:58:15.365Z,9.05
2023-04-21T22:00:42.789Z,8.93
2023-04-21T22:03:09.708Z,9.40
2023-04-21T22:05:36.692Z,10.40
2023-04-21T22:08:04.359Z,8.85
2023-04-21T22:10:31.391Z,8.10
2023-04-21T22:12:58.404Z,7.55
2023-04-21T22:15:25.196Z,7.75
2023-04-21T22:17:52.436Z,8.25
2023-04-21T22:20:19.555Z,8.02
2023-04-21T22:22:51.036Z,7.72
2023-04-21T22:25:18.029Z,8.55
2023-04-21T22:27:45.229Z,7.63
2023-04-21T22:30:15.818Z,7.60
2023-04-21T22:32:43.662Z,8.40
2023-04-21T22:35:10.562Z,7.55
2023-04-21T22:37:37.446Z,8.07
2023-04-21T22:40:04.976Z,7.18
2023-04-21T22:42:32.200Z,6.47
2023-04-21T22:45:01.705Z,7.10
2023-04-21T22:47:28.565Z,7.72
2023-04-21T22:49:56.169Z,7.32
2023-04-21T22:52:23.052Z,7.50
2023-04-21T22:54:49.856Z,7.93
2023-04-21T22:57:16.702Z,8.25
2023-04-21T22:59:43.541Z,7.22
2023-04-21T23:02:10.563Z,7.38
2023-04-21T23:04:37.522Z,7.63
2023-04-21T23:07:05.389Z,7.43
2023-04-21T23:09:32.264Z,7.20
2023-04-21T23:11:59.272Z,8.38
2023-04-21T23:14:26.485Z,8.18
2023-04-21T23:16:53.404Z,7.93
2023-04-21T23:19:21.200Z,7.50
2023-04-21T23:21:48.104Z,8.32
2023-04-21T23:24:15.817Z,7.68
2023-04-21T23:26:45.995Z,7.10
2023-04-21T23:29:13.130Z,7.47
2023-04-21T23:31:40.417Z,7.15
2023-04-21T23:34:07.482Z,7.45
2023-04-21T23:36:34.297Z,7.82
2023-04-21T23:39:01.347Z,8.43
2023-04-21T23:41:28.280Z,8.00
2023-04-21T23:43:55.086Z,7.68
2023-04-21T23:46:21.999Z,7.85
2023-04-21T23:48:48.803Z,7.85
2023-04-21T23:51:15.966Z,7.57
2023-04-21T23:53:42.804Z,7.28
2023-04-21T23:56:09.550Z,7.75
2023-04-21T23:58:36.383Z,7.72
